Time;durP1;ratioP1;P1;durP2;ratioP2;P2;SDS_P1;SDS_P2;PMS_P1;PMS_P2;Temp;Humidity;BMP_temperature;BMP_pressure;BME280_temperature;BME280_humidity;BME280_pressure;Samples;Min_cycle;Max_cycle;Signal;HPM_P1;HPM_P2
2023/08/16 00:00:53;;;;;;;0.00;0.00;;;16.90;99.90;;;;;;4922630;28;20044;-69
2023/08/16 00:03:18;;;;;;;0.20;0.20;;;16.80;99.90;;;;;;4908815;28;20135;-69
2023/08/16 00:05:44;;;;;;;0.00;0.00;;;16.80;99.90;;;;;;4908000;28;20633;-69
2023/08/16 00:08:10;;;;;;;0.10;0.10;;;16.70;99.90;;;;;;4928102;28;20034;-69
2023/08/16 00:10:36;;;;;;;0.00;0.00;;;16.60;99.90;;;;;;4953038;28;20463;-69
2023/08/16 00:13:01;;;;;;;4.13;2.28;;;16.60;99.90;;;;;;4901726;28;20048;-69
2023/08/16 00:15:27;;;;;;;0.20;0.20;;;16.50;99.90;;;;;;4929116;28;20037;-70
2023/08/16 00:17:53;;;;;;;0.28;0.28;;;16.50;99.90;;;;;;4945935;28;20063;-69
2023/08/16 00:20:26;;;;;;;2.00;0.85;;;16.40;99.90;;;;;;4924372;28;20760;-69
2023/08/16 00:22:52;;;;;;;0.00;0.00;;;16.40;99.90;;;;;;4909397;28;20087;-70
2023/08/16 00:25:18;;;;;;;0.00;0.00;;;16.30;99.90;;;;;;4944569;28;20072;-69
2023/08/16 00:27:43;;;;;;;0.10;0.10;;;16.30;99.90;;;;;;4900512;28;20051;-69
2023/08/16 00:30:10;;;;;;;0.77;0.60;;;16.30;99.90;;;;;;4911714;28;20048;-69
2023/08/16 00:32:36;;;;;;;0.15;0.15;;;16.30;99.90;;;;;;4962946;28;20421;-70
2023/08/16 00:35:02;;;;;;;0.50;0.50;;;16.30;99.90;;;;;;4923831;28;20428;-69
2023/08/16 00:37:28;;;;;;;0.22;0.22;;;16.20;99.90;;;;;;4961475;28;20052;-69
2023/08/16 00:39:53;;;;;;;0.10;0.10;;;16.20;99.90;;;;;;4917675;28;20420;-70
2023/08/16 00:42:19;;;;;;;0.10;0.10;;;16.20;99.90;;;;;;4945691;28;20095;-69
2023/08/16 00:44:45;;;;;;;0.88;0.47;;;16.20;99.90;;;;;;4940211;28;20124;-69
2023/08/16 00:47:11;;;;;;;0.82;0.47;;;16.20;99.90;;;;;;4913787;28;20119;-69
2023/08/16 00:49:40;;;;;;;0.10;0.10;;;16.10;99.90;;;;;;4934379;28;20037;-69
2023/08/16 00:52:06;;;;;;;0.20;0.20;;;16.10;99.90;;;;;;4937236;28;20413;-69
2023/08/16 00:54:32;;;;;;;0.00;0.00;;;16.10;99.90;;;;;;4919948;28;20040;-69
2023/08/16 00:56:59;;;;;;;0.25;0.25;;;16.10;99.90;;;;;;4938051;28;20053;-69
2023/08/16 00:59:27;;;;;;;0.60;0.60;;;16.20;99.90;;;;;;4908526;28;20045;-69
2023/08/16 01:01:53;;;;;;;0.17;0.17;;;16.10;99.90;;;;;;4943673;28;20094;-69
2023/08/16 01:04:19;;;;;;;4.07;0.52;;;16.10;99.90;;;;;;4944598;28;20071;-69
2023/08/16 01:06:45;;;;;;;0.38;0.38;;;16.10;99.90;;;;;;4906747;28;20113;-69
2023/08/16 01:09:11;;;;;;;0.15;0.13;;;16.10;99.90;;;;;;4920718;28;20469;-69
2023/08/16 01:12:08;;;;;;;0.63;0.47;;;16.20;99.90;;;;;;4914996;28;20388;-69
2023/08/16 01:14:48;;;;;;;0.57;0.40;;;16.20;99.90;;;;;;4905871;28;20056;-69
2023/08/16 01:17:15;;;;;;;0.10;0.10;;;16.20;99.90;;;;;;4989980;28;20064;-69
2023/08/16 01:19:41;;;;;;;0.00;0.00;;;16.20;99.90;;;;;;4952612;28;20123;-70
2023/08/16 01:22:55;;;;;;;0.47;0.28;;;16.00;99.90;;;;;;4920972;28;20048;-70
2023/08/16 01:25:50;;;;;;;0.85;0.20;;;16.10;99.90;;;;;;4920459;28;20428;-69
2023/08/16 01:28:18;;;;;;;0.00;0.00;;;16.10;99.90;;;;;;4926238;28;20131;-69
2023/08/16 01:30:45;;;;;;;0.00;0.00;;;16.10;99.90;;;;;;4916228;28;20067;-70
2023/08/16 01:33:13;;;;;;;0.13;0.13;;;16.10;99.90;;;;;;4911180;28;20051;-69
2023/08/16 01:35:39;;;;;;;0.98;0.63;;;16.00;99.90;;;;;;4914720;28;20044;-68
2023/08/16 01:38:08;;;;;;;0.10;0.10;;;16.00;99.90;;;;;;4948151;28;20100;-69
2023/08/16 01:40:38;;;;;;;0.38;0.30;;;16.00;99.90;;;;;;4926273;28;20102;-69
2023/08/16 01:43:09;;;;;;;0.25;0.25;;;16.00;99.90;;;;;;4914216;28;20102;-69
2023/08/16 01:45:34;;;;;;;1.75;0.55;;;16.00;99.90;;;;;;4910318;28;20067;-69
2023/08/16 01:48:02;;;;;;;0.00;0.00;;;16.00;99.90;;;;;;4923658;28;20485;-69
2023/08/16 01:50:27;;;;;;;0.28;0.28;;;16.00;99.90;;;;;;4910585;28;20587;-69
2023/08/16 01:52:53;;;;;;;0.00;0.00;;;16.00;99.90;;;;;;4949035;28;20151;-70
2023/08/16 01:55:19;;;;;;;0.43;0.43;;;15.90;99.90;;;;;;4931541;28;20551;-70
2023/08/16 01:57:44;;;;;;;0.10;0.10;;;15.90;99.90;;;;;;4927104;28;20048;-70
2023/08/16 02:00:11;;;;;;;0.50;0.50;;;15.90;99.90;;;;;;4920660;28;20040;-70
2023/08/16 02:02:37;;;;;;;1.13;0.80;;;15.90;99.90;;;;;;4919361;28;20044;-69
2023/08/16 02:05:03;;;;;;;0.00;0.00;;;15.90;99.90;;;;;;4933898;28;20052;-68
2023/08/16 02:07:28;;;;;;;0.00;0.00;;;15.80;99.90;;;;;;4928318;28;20052;-69
2023/08/16 02:09:54;;;;;;;0.20;0.20;;;15.80;99.90;;;;;;4943172;28;20048;-69
2023/08/16 02:12:20;;;;;;;0.20;0.20;;;15.90;99.90;;;;;;4944796;28;20092;-69
2023/08/16 02:14:45;;;;;;;0.00;0.00;;;15.80;99.90;;;;;;4926856;28;20063;-69
2023/08/16 02:17:11;;;;;;;0.98;0.32;;;15.80;99.90;;;;;;4926605;28;20059;-69
2023/08/16 02:19:36;;;;;;;0.08;0.08;;;15.80;99.90;;;;;;4947080;28;20036;-69
2023/08/16 02:22:02;;;;;;;0.47;0.40;;;15.70;99.90;;;;;;4943300;28;20136;-69
2023/08/16 02:24:27;;;;;;;0.43;0.22;;;15.80;99.90;;;;;;4932556;28;20389;-69
2023/08/16 02:26:53;;;;;;;0.22;0.22;;;15.80;99.90;;;;;;4935657;28;20045;-69
2023/08/16 02:29:19;;;;;;;0.10;0.10;;;15.80;99.90;;;;;;4953118;28;20048;-69
2023/08/16 02:31:44;;;;;;;0.22;0.22;;;15.70;99.90;;;;;;4935389;28;20470;-68
2023/08/16 02:34:10;;;;;;;0.52;0.52;;;15.70;99.90;;;;;;4950764;28;20523;-69
2023/08/16 02:36:35;;;;;;;0.77;0.20;;;15.70;99.90;;;;;;4928979;28;20073;-69
2023/08/16 02:39:01;;;;;;;0.15;0.15;;;15.70;99.90;;;;;;4926957;28;20036;-69
2023/08/16 02:41:27;;;;;;;0.10;0.10;;;15.70;99.90;;;;;;4926209;28;20052;-69
2023/08/16 02:43:52;;;;;;;0.00;0.00;;;15.70;99.90;;;;;;4912687;28;20428;-69
2023/08/16 02:46:18;;;;;;;0.10;0.10;;;15.80;99.90;;;;;;4907580;28;20115;-69
2023/08/16 02:48:43;;;;;;;0.10;0.10;;;15.70;99.90;;;;;;4928939;28;20100;-69
2023/08/16 02:51:09;;;;;;;0.35;0.35;;;15.70;99.90;;;;;;4908509;28;20119;-70
2023/08/16 02:53:34;;;;;;;0.52;0.43;;;15.70;99.90;;;;;;4919735;28;20043;-68
2023/08/16 02:56:00;;;;;;;0.55;0.52;;;15.60;99.90;;;;;;4912874;28;20203;-69
2023/08/16 02:58:26;;;;;;;0.80;0.38;;;15.60;99.90;;;;;;4927593;28;20052;-69
2023/08/16 03:00:52;;;;;;;0.00;0.00;;;15.60;99.90;;;;;;4935561;28;20048;-69
2023/08/16 03:03:18;;;;;;;0.10;0.10;;;15.70;99.90;;;;;;4952226;28;20053;-69
2023/08/16 03:05:44;;;;;;;0.30;0.30;;;15.70;99.90;;;;;;4934614;28;20102;-69
2023/08/16 03:08:09;;;;;;;0.00;0.00;;;15.60;99.90;;;;;;4928847;28;20046;-69
2023/08/16 03:10:35;;;;;;;0.75;0.75;;;15.60;99.90;;;;;;4940195;28;20474;-69
2023/08/16 03:13:00;;;;;;;0.38;0.38;;;15.60;99.90;;;;;;4910071;28;20060;-69
2023/08/16 03:15:26;;;;;;;2.63;0.45;;;15.50;99.90;;;;;;4952952;28;20128;-69
2023/08/16 03:17:51;;;;;;;0.00;0.00;;;15.50;99.90;;;;;;4933792;28;20373;-68
2023/08/16 03:20:17;;;;;;;0.05;0.05;;;15.50;99.90;;;;;;4974260;28;20042;-68
2023/08/16 03:22:43;;;;;;;0.52;0.52;;;15.50;99.90;;;;;;4956304;28;20523;-70
2023/08/16 03:25:08;;;;;;;0.20;0.20;;;15.50;99.90;;;;;;4928182;28;20051;-68
2023/08/16 03:27:34;;;;;;;0.15;0.15;;;15.50;99.90;;;;;;4949234;28;20046;-68
2023/08/16 03:30:00;;;;;;;0.03;0.03;;;15.40;99.90;;;;;;4960406;28;20052;-68
2023/08/16 03:32:25;;;;;;;2.40;0.40;;;15.40;99.90;;;;;;4903632;28;20191;-68
2023/08/16 03:34:51;;;;;;;0.50;0.50;;;15.40;99.90;;;;;;4934007;28;20391;-69
2023/08/16 03:37:17;;;;;;;2.17;0.20;;;15.40;99.90;;;;;;4962240;28;20043;-69
2023/08/16 03:39:42;;;;;;;0.85;0.32;;;15.40;99.90;;;;;;4919451;28;20092;-68
2023/08/16 03:42:08;;;;;;;0.77;0.30;;;15.50;99.90;;;;;;4947610;28;20097;-69
2023/08/16 03:44:34;;;;;;;0.10;0.10;;;15.50;99.90;;;;;;4931959;28;20090;-68
2023/08/16 03:46:59;;;;;;;0.08;0.08;;;15.40;99.90;;;;;;4931743;28;20422;-68
2023/08/16 03:49:25;;;;;;;0.00;0.00;;;15.40;99.90;;;;;;4922820;28;20063;-69
2023/08/16 03:51:51;;;;;;;0.20;0.20;;;15.40;99.90;;;;;;4968502;28;20049;-68
2023/08/16 03:54:16;;;;;;;0.10;0.10;;;15.40;99.90;;;;;;4924113;28;20034;-68
2023/08/16 03:56:42;;;;;;;0.10;0.10;;;15.30;99.90;;;;;;4907071;28;20056;-68
2023/08/16 03:59:08;;;;;;;0.10;0.10;;;15.20;99.90;;;;;;4925872;28;20038;-68
2023/08/16 04:01:33;;;;;;;0.10;0.10;;;15.20;99.90;;;;;;4927505;28;20080;-69
2023/08/16 04:03:59;;;;;;;0.35;0.35;;;15.20;99.90;;;;;;4962027;28;20047;-68
2023/08/16 04:06:25;;;;;;;0.20;0.20;;;15.20;99.90;;;;;;4905366;28;20053;-68
2023/08/16 04:08:50;;;;;;;0.10;0.10;;;15.30;99.90;;;;;;4912571;28;21560;-68
2023/08/16 04:11:16;;;;;;;0.00;0.00;;;15.30;99.90;;;;;;4919151;28;20048;-69
2023/08/16 04:13:42;;;;;;;0.13;0.13;;;15.30;99.90;;;;;;4925974;28;20086;-69
2023/08/16 04:16:07;;;;;;;0.20;0.20;;;15.30;99.90;;;;;;4927144;28;20041;-68
2023/08/16 04:18:33;;;;;;;0.05;0.05;;;15.30;99.90;;;;;;4943413;28;20040;-69
2023/08/16 04:20:58;;;;;;;0.00;0.00;;;15.30;99.90;;;;;;4977938;28;20068;-68
2023/08/16 04:23:24;;;;;;;0.22;0.22;;;15.30;99.90;;;;;;4947262;28;20044;-68
2023/08/16 04:25:50;;;;;;;0.35;0.35;;;15.30;99.90;;;;;;4936225;28;20396;-68
2023/08/16 04:28:16;;;;;;;0.35;0.35;;;15.20;99.90;;;;;;4953074;28;20136;-68
2023/08/16 04:30:41;;;;;;;0.00;0.00;;;15.20;99.90;;;;;;4951160;28;20143;-68
2023/08/16 04:33:07;;;;;;;0.10;0.10;;;15.30;99.90;;;;;;4921693;28;20048;-68
2023/08/16 04:35:33;;;;;;;0.55;0.22;;;15.30;99.90;;;;;;4921653;28;20096;-69
2023/08/16 04:37:58;;;;;;;0.17;0.17;;;15.30;99.90;;;;;;4949962;28;20041;-68
2023/08/16 04:40:24;;;;;;;0.10;0.10;;;15.30;99.90;;;;;;4911877;28;20110;-69
2023/08/16 04:42:49;;;;;;;3.40;0.47;;;15.20;99.90;;;;;;4906098;28;20091;-69
2023/08/16 04:45:15;;;;;;;0.10;0.10;;;15.20;99.90;;;;;;4931446;28;20048;-68
2023/08/16 04:47:41;;;;;;;0.00;0.00;;;15.30;99.90;;;;;;4957492;28;20129;-68
2023/08/16 04:50:07;;;;;;;0.00;0.00;;;15.20;99.90;;;;;;4948424;28;20059;-68
2023/08/16 04:52:37;;;;;;;0.00;0.00;;;15.30;99.90;;;;;;4931700;28;20046;-68
2023/08/16 04:55:03;;;;;;;0.20;0.20;;;15.30;99.90;;;;;;4942168;28;20449;-68
2023/08/16 04:57:29;;;;;;;0.00;0.00;;;15.30;99.90;;;;;;4951126;28;20054;-68
2023/08/16 04:59:54;;;;;;;1.58;0.32;;;15.30;99.90;;;;;;4941847;28;20586;-68
2023/08/16 05:02:20;;;;;;;0.10;0.10;;;15.40;99.90;;;;;;4964739;28;20056;-68
2023/08/16 05:04:46;;;;;;;0.00;0.00;;;15.40;99.90;;;;;;4956658;28;20074;-68
2023/08/16 05:07:11;;;;;;;0.10;0.10;;;15.40;99.90;;;;;;4972350;28;20048;-68
2023/08/16 05:09:37;;;;;;;0.00;0.00;;;15.50;99.90;;;;;;4931605;28;20041;-69
2023/08/16 05:12:03;;;;;;;0.85;0.57;;;15.50;99.90;;;;;;4908228;28;21086;-68
2023/08/16 05:14:29;;;;;;;0.08;0.08;;;15.50;99.90;;;;;;4916581;28;20071;-69
2023/08/16 05:16:55;;;;;;;0.00;0.00;;;15.60;99.90;;;;;;4939296;28;20052;-68
2023/08/16 05:19:21;;;;;;;0.85;0.85;;;15.70;99.90;;;;;;4948320;28;20075;-68
2023/08/16 05:21:46;;;;;;;0.15;0.15;;;15.70;99.90;;;;;;4903018;28;20051;-68
2023/08/16 05:24:12;;;;;;;0.32;0.17;;;15.70;99.90;;;;;;4926407;28;20040;-68
2023/08/16 05:26:37;;;;;;;0.43;0.32;;;15.80;99.90;;;;;;4912082;28;20052;-68
2023/08/16 05:29:03;;;;;;;0.25;0.25;;;15.80;99.90;;;;;;4919654;28;20131;-68
2023/08/16 05:31:29;;;;;;;0.08;0.08;;;15.90;99.90;;;;;;4915671;28;20406;-67
2023/08/16 05:33:55;;;;;;;0.05;0.05;;;15.90;99.90;;;;;;4935879;28;20051;-68
2023/08/16 05:36:20;;;;;;;0.05;0.05;;;16.00;99.90;;;;;;4947705;28;20547;-68
2023/08/16 05:38:46;;;;;;;0.00;0.00;;;16.00;99.90;;;;;;4937802;28;20041;-68
2023/08/16 05:41:11;;;;;;;1.08;0.55;;;16.00;99.90;;;;;;4929407;28;20044;-68
2023/08/16 05:43:37;;;;;;;0.00;0.00;;;16.10;99.90;;;;;;4948076;28;20140;-68
2023/08/16 05:46:03;;;;;;;0.08;0.08;;;16.20;99.90;;;;;;4970927;28;20041;-69
2023/08/16 05:48:28;;;;;;;3.72;0.28;;;16.20;99.90;;;;;;4916033;28;20500;-68
2023/08/16 05:50:54;;;;;;;0.00;0.00;;;16.30;99.90;;;;;;4958614;28;20044;-68
2023/08/16 05:53:20;;;;;;;0.00;0.00;;;16.40;99.90;;;;;;4958020;28;20046;-68
2023/08/16 05:55:45;;;;;;;0.20;0.20;;;16.40;99.90;;;;;;4939940;28;20040;-68
2023/08/16 05:58:11;;;;;;;0.00;0.00;;;16.50;99.90;;;;;;4962415;28;20058;-68
2023/08/16 06:00:37;;;;;;;0.20;0.20;;;16.50;99.90;;;;;;4949818;28;20473;-68
2023/08/16 06:03:03;;;;;;;0.10;0.10;;;16.50;99.90;;;;;;4943377;28;20056;-68
2023/08/16 06:05:29;;;;;;;0.00;0.00;;;16.50;99.90;;;;;;4935357;28;20445;-68
2023/08/16 06:07:54;;;;;;;0.00;0.00;;;16.60;99.90;;;;;;4919697;28;20048;-69
2023/08/16 06:10:20;;;;;;;0.10;0.10;;;16.60;99.90;;;;;;4951797;28;20080;-68
2023/08/16 06:12:45;;;;;;;0.00;0.00;;;16.60;99.90;;;;;;4906312;28;20504;-68
2023/08/16 06:15:11;;;;;;;0.43;0.43;;;16.60;99.90;;;;;;4949442;28;20568;-68
2023/08/16 06:17:40;;;;;;;0.00;0.00;;;16.60;99.90;;;;;;4893923;28;20053;-68
2023/08/16 06:20:07;;;;;;;0.35;0.15;;;16.70;99.90;;;;;;4935082;28;20052;-68
2023/08/16 06:22:34;;;;;;;0.00;0.00;;;16.70;99.90;;;;;;4934100;28;20049;-69
2023/08/16 06:25:00;;;;;;;0.22;0.22;;;16.80;99.90;;;;;;4945229;28;20041;-67
2023/08/16 06:27:25;;;;;;;0.10;0.10;;;16.80;99.90;;;;;;4939232;28;20092;-68
2023/08/16 06:29:51;;;;;;;0.00;0.00;;;16.90;99.90;;;;;;4922333;28;21785;-68
2023/08/16 06:32:17;;;;;;;0.08;0.08;;;16.90;99.90;;;;;;4910468;28;20558;-68
2023/08/16 06:34:43;;;;;;;0.00;0.00;;;16.90;99.90;;;;;;4933480;28;20040;-69
2023/08/16 06:37:09;;;;;;;0.20;0.20;;;17.00;99.90;;;;;;4921510;28;20059;-69
2023/08/16 06:39:34;;;;;;;0.00;0.00;;;17.10;99.90;;;;;;4963572;28;20547;-68
2023/08/16 06:42:00;;;;;;;0.00;0.00;;;17.10;99.90;;;;;;4963346;28;20046;-68
2023/08/16 06:44:26;;;;;;;0.00;0.00;;;17.20;99.90;;;;;;4937027;28;20055;-69
2023/08/16 06:46:51;;;;;;;0.00;0.00;;;17.20;99.90;;;;;;4941325;28;20452;-68
2023/08/16 06:49:17;;;;;;;0.00;0.00;;;17.30;99.90;;;;;;4946540;28;20057;-69
2023/08/16 06:51:43;;;;;;;0.05;0.05;;;17.30;99.90;;;;;;4956622;28;20432;-69
2023/08/16 06:54:08;;;;;;;0.00;0.00;;;17.40;99.90;;;;;;4948245;28;20048;-69
2023/08/16 06:56:34;;;;;;;0.00;0.00;;;17.50;99.90;;;;;;4903613;28;20048;-69
2023/08/16 06:59:00;;;;;;;0.00;0.00;;;17.50;99.90;;;;;;4960854;28;20046;-69
2023/08/16 07:01:26;;;;;;;1.00;0.55;;;17.50;99.90;;;;;;4962329;28;20071;-68
2023/08/16 07:03:51;;;;;;;0.00;0.00;;;17.60;99.90;;;;;;4922130;28;20072;-69
2023/08/16 07:06:18;;;;;;;0.00;0.00;;;17.60;99.90;;;;;;4917092;28;20099;-69
2023/08/16 07:08:43;;;;;;;0.00;0.00;;;17.70;99.90;;;;;;4946536;28;20050;-71
2023/08/16 07:11:09;;;;;;;0.13;0.13;;;17.70;99.90;;;;;;4951170;28;20510;-69
2023/08/16 07:13:34;;;;;;;0.00;0.00;;;17.80;99.90;;;;;;4904983;28;20055;-69
2023/08/16 07:16:00;;;;;;;0.10;0.10;;;17.80;99.90;;;;;;4950407;28;20051;-69
2023/08/16 07:18:26;;;;;;;0.28;0.28;;;17.90;99.90;;;;;;4973858;28;20063;-69
2023/08/16 07:20:51;;;;;;;0.00;0.00;;;18.00;99.90;;;;;;4930229;28;20044;-69
2023/08/16 07:23:17;;;;;;;0.00;0.00;;;18.00;99.90;;;;;;4951105;28;20044;-69
2023/08/16 07:25:42;;;;;;;0.00;0.00;;;18.00;99.90;;;;;;4939673;28;20083;-69
2023/08/16 07:28:08;;;;;;;0.55;0.55;;;18.10;99.90;;;;;;4961074;28;20110;-69
2023/08/16 07:30:37;;;;;;;0.10;0.10;;;18.10;99.90;;;;;;4947192;28;20044;-69
2023/08/16 07:33:04;;;;;;;0.20;0.20;;;18.20;99.90;;;;;;4933340;28;20339;-69
2023/08/16 07:35:30;;;;;;;0.00;0.00;;;18.30;99.90;;;;;;4913240;28;20081;-69
2023/08/16 07:37:56;;;;;;;0.00;0.00;;;18.30;99.90;;;;;;4921950;28;20114;-68
2023/08/16 07:40:22;;;;;;;0.00;0.00;;;18.40;99.90;;;;;;4990542;28;20133;-69
2023/08/16 07:42:47;;;;;;;0.25;0.25;;;18.50;99.90;;;;;;4955688;28;20036;-69
2023/08/16 07:45:13;;;;;;;0.20;0.20;;;18.50;99.90;;;;;;4904540;28;20084;-68
2023/08/16 07:47:38;;;;;;;0.00;0.00;;;18.50;99.90;;;;;;4923516;28;20046;-69
2023/08/16 07:50:05;;;;;;;0.00;0.00;;;18.60;99.90;;;;;;4922641;28;20036;-68
2023/08/16 07:52:30;;;;;;;0.00;0.00;;;18.60;99.90;;;;;;4929407;28;20113;-68
2023/08/16 07:54:56;;;;;;;0.00;0.00;;;18.60;99.90;;;;;;4953202;28;20121;-68
2023/08/16 07:57:21;;;;;;;0.10;0.10;;;18.70;99.90;;;;;;4951118;28;21321;-68
2023/08/16 07:59:47;;;;;;;0.00;0.00;;;18.70;99.90;;;;;;4922193;28;20036;-69
2023/08/16 08:02:13;;;;;;;0.00;0.00;;;18.70;99.90;;;;;;4910251;28;20045;-68
2023/08/16 08:04:39;;;;;;;0.10;0.10;;;18.80;99.90;;;;;;4925921;28;20047;-68
2023/08/16 08:07:04;;;;;;;0.00;0.00;;;18.90;99.90;;;;;;4969386;28;20600;-70
2023/08/16 08:09:31;;;;;;;0.00;0.00;;;19.00;99.90;;;;;;4939308;28;20042;-69
2023/08/16 08:11:58;;;;;;;0.00;0.00;;;19.10;99.90;;;;;;4963108;28;20041;-69
2023/08/16 08:14:23;;;;;;;0.40;0.40;;;19.10;99.90;;;;;;4929096;28;20055;-69
2023/08/16 08:16:50;;;;;;;0.05;0.05;;;19.10;99.90;;;;;;4936914;28;20053;-69
2023/08/16 08:19:15;;;;;;;0.00;0.00;;;19.20;99.90;;;;;;4946446;28;20045;-69
2023/08/16 08:21:41;;;;;;;0.00;0.00;;;19.20;99.90;;;;;;4936637;28;20126;-69
2023/08/16 08:24:07;;;;;;;0.00;0.00;;;19.10;99.90;;;;;;4924290;28;20456;-69
2023/08/16 08:26:33;;;;;;;0.00;0.00;;;19.10;99.90;;;;;;4954214;28;20041;-70
2023/08/16 08:28:59;;;;;;;0.10;0.10;;;19.20;99.90;;;;;;4955102;28;20069;-69
2023/08/16 08:31:25;;;;;;;0.00;0.00;;;19.30;99.90;;;;;;4915858;28;20057;-69
2023/08/16 08:33:50;;;;;;;0.00;0.00;;;19.40;99.90;;;;;;4940322;28;20488;-69
2023/08/16 08:36:16;;;;;;;0.00;0.00;;;19.50;99.90;;;;;;4955090;28;20052;-69
2023/08/16 08:38:42;;;;;;;0.08;0.08;;;19.50;99.90;;;;;;4920931;28;20059;-69
2023/08/16 08:41:08;;;;;;;0.00;0.00;;;19.60;99.90;;;;;;4980864;28;20121;-69
2023/08/16 08:43:36;;;;;;;0.28;0.28;;;19.60;99.90;;;;;;4965560;28;20075;-69
2023/08/16 08:46:03;;;;;;;0.00;0.00;;;19.60;99.90;;;;;;4939558;28;20044;-69
2023/08/16 08:48:29;;;;;;;0.00;0.00;;;19.60;99.90;;;;;;4941095;28;20095;-69
2023/08/16 08:50:56;;;;;;;0.00;0.00;;;19.70;99.90;;;;;;4970093;28;20038;-69
2023/08/16 08:53:23;;;;;;;0.00;0.00;;;19.80;99.90;;;;;;4958322;28;20488;-69
2023/08/16 08:55:52;;;;;;;0.00;0.00;;;19.90;99.90;;;;;;4951250;28;20061;-69
2023/08/16 08:58:19;;;;;;;0.13;0.10;;;20.00;99.90;;;;;;4904012;28;20060;-69
2023/08/16 09:00:46;;;;;;;0.10;0.10;;;20.20;99.90;;;;;;4953070;28;20050;-69
2023/08/16 09:03:12;;;;;;;0.00;0.00;;;20.30;99.90;;;;;;4959427;28;20097;-69
2023/08/16 09:05:39;;;;;;;0.00;0.00;;;20.40;99.90;;;;;;4919101;28;20111;-69
2023/08/16 09:08:06;;;;;;;0.30;0.30;;;20.50;99.90;;;;;;4920758;28;20143;-69
2023/08/16 09:10:39;;;;;;;0.20;0.20;;;20.60;99.90;;;;;;4912172;28;20048;-70
2023/08/16 09:13:06;;;;;;;0.10;0.10;;;20.60;99.90;;;;;;4957274;28;20161;-69
2023/08/16 09:15:32;;;;;;;1.08;0.17;;;20.70;99.90;;;;;;4928783;28;20076;-68
2023/08/16 09:18:16;;;;;;;0.00;0.00;;;20.80;99.90;;;;;;4955378;28;20135;-69
2023/08/16 09:20:42;;;;;;;0.20;0.20;;;20.90;99.90;;;;;;4923263;28;20056;-69
2023/08/16 09:23:12;;;;;;;0.20;0.20;;;21.10;99.90;;;;;;4951836;28;20045;-69
2023/08/16 09:25:38;;;;;;;0.00;0.00;;;21.30;99.90;;;;;;4922859;28;20131;-69
2023/08/16 09:28:07;;;;;;;0.00;0.00;;;21.90;99.90;;;;;;4958236;28;20458;-69
2023/08/16 09:30:33;;;;;;;0.00;0.00;;;22.50;99.90;;;;;;4939580;28;20451;-69
2023/08/16 09:33:00;;;;;;;0.00;0.00;;;23.10;99.90;;;;;;4930737;28;20515;-69
2023/08/16 09:35:30;;;;;;;0.00;0.00;;;23.50;99.90;;;;;;4938613;28;20034;-70
2023/08/16 09:38:00;;;;;;;0.10;0.10;;;23.70;99.90;;;;;;4947394;28;20436;-69
2023/08/16 09:40:26;;;;;;;0.00;0.00;;;23.80;99.90;;;;;;4964735;28;20156;-70
2023/08/16 09:42:58;;;;;;;2.85;0.70;;;23.70;99.90;;;;;;4955641;28;20132;-69
2023/08/16 09:45:31;;;;;;;0.40;0.40;;;23.40;99.90;;;;;;4935132;28;20053;-70
2023/08/16 09:47:59;;;;;;;0.00;0.00;;;23.40;99.90;;;;;;4920306;28;20455;-69
2023/08/16 09:50:26;;;;;;;0.00;0.00;;;23.00;99.90;;;;;;4927745;28;20353;-69
2023/08/16 09:52:52;;;;;;;0.00;0.00;;;22.50;99.90;;;;;;4941934;28;20054;-69
2023/08/16 09:55:30;;;;;;;0.00;0.00;;;22.20;99.90;;;;;;4930058;28;20051;-69
2023/08/16 09:58:00;;;;;;;0.00;0.00;;;22.00;99.90;;;;;;4918873;28;20048;-70
2023/08/16 10:00:30;;;;;;;0.00;0.00;;;22.40;99.90;;;;;;4913823;28;20401;-69
2023/08/16 10:02:56;;;;;;;0.00;0.00;;;22.40;99.90;;;;;;4940671;28;20042;-69
2023/08/16 10:05:24;;;;;;;0.00;0.00;;;22.40;99.90;;;;;;4961368;28;20052;-69
2023/08/16 10:07:51;;;;;;;0.00;0.00;;;22.70;99.90;;;;;;4954564;28;20044;-69
2023/08/16 10:10:17;;;;;;;0.00;0.00;;;23.00;99.90;;;;;;4913606;28;20048;-70
2023/08/16 10:12:44;;;;;;;0.00;0.00;;;23.50;99.90;;;;;;4948316;28;20055;-70
2023/08/16 10:15:11;;;;;;;0.00;0.00;;;23.30;99.90;;;;;;4939673;28;20040;-70
2023/08/16 10:17:42;;;;;;;0.00;0.00;;;23.10;99.90;;;;;;4926932;28;20052;-69
2023/08/16 10:20:21;;;;;;;0.00;0.00;;;23.40;99.90;;;;;;4967056;28;20044;-69
2023/08/16 10:22:50;;;;;;;0.00;0.00;;;23.10;99.90;;;;;;4922284;28;20048;-70
2023/08/16 10:25:23;;;;;;;0.00;0.00;;;22.70;99.90;;;;;;4943043;28;20038;-70
2023/08/16 10:27:53;;;;;;;0.00;0.00;;;22.30;99.90;;;;;;4948748;28;20038;-69
2023/08/16 10:30:23;;;;;;;0.00;0.00;;;22.30;99.90;;;;;;4942943;28;20052;-69
2023/08/16 10:33:24;;;;;;;0.00;0.00;;;22.20;99.90;;;;;;4921690;28;20062;-69
2023/08/16 10:35:50;;;;;;;0.55;0.32;;;22.00;99.90;;;;;;4946219;28;20410;-70
2023/08/16 10:38:19;;;;;;;0.00;0.00;;;22.40;99.90;;;;;;4935978;28;20106;-69
2023/08/16 10:40:58;;;;;;;0.10;0.10;;;22.60;99.90;;;;;;4943953;28;20418;-69
2023/08/16 10:43:32;;;;;;;0.20;0.10;;;22.40;99.90;;;;;;4900199;28;20135;-69
2023/08/16 10:45:57;;;;;;;0.00;0.00;;;22.20;99.90;;;;;;4907548;28;20665;-69
2023/08/16 10:48:23;;;;;;;0.35;0.35;;;22.10;99.90;;;;;;4947375;28;20044;-69
2023/08/16 10:50:55;;;;;;;0.00;0.00;;;21.90;99.90;;;;;;4925884;28;20396;-69
2023/08/16 10:53:23;;;;;;;0.00;0.00;;;22.10;99.90;;;;;;4973956;28;20129;-68
2023/08/16 10:55:56;;;;;;;0.00;0.00;;;22.50;99.90;;;;;;4956719;28;20054;-69
2023/08/16 10:58:23;;;;;;;0.00;0.00;;;22.90;99.90;;;;;;4936665;28;20082;-68
2023/08/16 11:00:57;;;;;;;0.00;0.00;;;22.70;99.90;;;;;;4937452;28;20468;-69
2023/08/16 11:03:30;;;;;;;0.00;0.00;;;22.50;99.90;;;;;;4964357;28;20056;-69
2023/08/16 11:05:58;;;;;;;;;;;22.40;99.90;;;;;;4953609;28;20050;-69
2023/08/16 11:08:28;;;;;;;0.00;0.00;;;22.40;99.90;;;;;;4927955;28;19917;-69
2023/08/16 11:10:53;;;;;;;0.00;0.00;;;22.40;99.90;;;;;;4951755;28;20051;-69
2023/08/16 11:13:19;;;;;;;0.00;0.00;;;23.00;99.90;;;;;;4925393;28;20045;-69
2023/08/16 11:15:44;;;;;;;0.00;0.00;;;23.40;99.90;;;;;;4950531;28;20071;-68
2023/08/16 11:18:10;;;;;;;0.00;0.00;;;23.80;99.90;;;;;;4961554;28;20486;-68
2023/08/16 11:20:36;;;;;;;0.00;0.00;;;24.10;99.90;;;;;;4911475;28;20045;-70
2023/08/16 11:23:02;;;;;;;0.20;0.20;;;24.50;99.90;;;;;;4940892;28;20059;-69
2023/08/16 11:25:35;;;;;;;0.10;0.03;;;24.70;99.90;;;;;;4943710;28;20504;-68
2023/08/16 11:28:04;;;;;;;0.00;0.00;;;25.00;99.90;;;;;;4926489;28;20114;-68
2023/08/16 11:30:33;;;;;;;0.00;0.00;;;25.30;99.90;;;;;;4951788;28;20096;-68
2023/08/16 11:33:00;;;;;;;0.00;0.00;;;25.50;99.90;;;;;;4911528;28;20056;-69
2023/08/16 11:35:25;;;;;;;0.00;0.00;;;25.70;99.90;;;;;;4967800;28;20130;-68
2023/08/16 11:37:51;;;;;;;0.10;0.10;;;25.30;99.90;;;;;;4967963;28;20068;-68
2023/08/16 11:40:23;;;;;;;0.30;0.30;;;24.80;99.90;;;;;;4917801;28;20048;-68
2023/08/16 11:42:50;;;;;;;0.00;0.00;;;24.50;99.90;;;;;;4943486;28;20090;-68
2023/08/16 11:45:21;;;;;;;0.08;0.08;;;25.00;99.90;;;;;;4924302;28;20044;-68
2023/08/16 11:47:53;;;;;;;0.10;0.10;;;24.80;99.90;;;;;;4917107;28;20098;-68
2023/08/16 11:50:21;;;;;;;0.00;0.00;;;25.00;99.90;;;;;;4907608;28;20059;-68
2023/08/16 11:52:57;;;;;;;0.00;0.00;;;25.20;99.90;;;;;;4955224;28;20038;-68
2023/08/16 11:55:22;;;;;;;0.22;0.10;;;25.50;99.90;;;;;;4921416;28;20472;-68
2023/08/16 11:57:48;;;;;;;0.00;0.00;;;25.80;99.90;;;;;;4929410;28;20079;-67
2023/08/16 12:00:26;;;;;;;0.00;0.00;;;26.00;99.90;;;;;;4957656;28;20402;-68
2023/08/16 12:02:51;;;;;;;0.00;0.00;;;26.10;99.90;;;;;;4967315;28;20518;-68
2023/08/16 12:05:17;;;;;;;0.00;0.00;;;26.10;99.90;;;;;;4947531;28;20050;-68
2023/08/16 12:07:45;;;;;;;0.00;0.00;;;25.50;99.90;;;;;;4917645;28;20063;-67
2023/08/16 12:10:21;;;;;;;0.00;0.00;;;25.90;99.90;;;;;;4927857;28;20050;-67
2023/08/16 12:12:48;;;;;;;0.20;0.10;;;26.20;99.90;;;;;;4925766;28;20106;-68
2023/08/16 12:15:14;;;;;;;0.00;0.00;;;26.30;99.90;;;;;;4957931;28;20056;-68
2023/08/16 12:17:40;;;;;;;0.17;0.00;;;26.70;99.90;;;;;;4952548;28;20563;-68
2023/08/16 12:20:06;;;;;;;0.00;0.00;;;26.90;99.90;;;;;;4974892;28;20055;-69
2023/08/16 12:22:31;;;;;;;0.00;0.00;;;26.60;99.90;;;;;;4950795;28;20064;-68
2023/08/16 12:24:57;;;;;;;0.00;0.00;;;26.90;99.90;;;;;;4938943;28;20384;-69
2023/08/16 12:27:22;;;;;;;0.55;0.40;;;27.20;99.90;;;;;;4951469;28;20038;-69
2023/08/16 12:29:48;;;;;;;0.00;0.00;;;27.10;99.90;;;;;;4916256;28;20492;-69
2023/08/16 12:32:13;;;;;;;0.10;0.10;;;27.10;99.90;;;;;;4959056;28;20118;-70
2023/08/16 12:34:39;;;;;;;32.13;2.83;;;26.90;99.90;;;;;;4919249;28;20060;-69
2023/08/16 12:37:07;;;;;;;0.00;0.00;;;26.20;99.90;;;;;;4927374;28;20053;-69
2023/08/16 12:39:32;;;;;;;0.00;0.00;;;25.40;99.90;;;;;;4936787;28;20425;-68
2023/08/16 12:41:58;;;;;;;0.00;0.00;;;25.10;99.90;;;;;;4935337;28;20450;-70
2023/08/16 12:44:24;;;;;;;0.00;0.00;;;25.40;99.90;;;;;;4923286;28;20105;-69
2023/08/16 12:46:50;;;;;;;0.00;0.00;;;25.40;99.90;;;;;;4936169;28;20125;-69